Time;durP1;ratioP1;P1;durP2;ratioP2;P2;SDS_P1;SDS_P2;PMS_P1;PMS_P2;Temp;Humidity;BMP_temperature;BMP_pressure;BME280_temperature;BME280_humidity;BME280_pressure;Samples;Min_cycle;Max_cycle;Signal;HPM_P1;HPM_P2
2022/06/06 00:01:00;;;;;;;11.98;5.60;;;;;;;;;;10292477;28;20242;-67
2022/06/06 00:06:09;;;;;;;10.25;5.68;;;;;;;;;;10292011;28;20047;-66
2022/06/06 00:11:12;;;;;;;11.60;5.38;;;;;;;;;;10291594;28;20047;-66
2022/06/06 00:16:15;;;;;;;16.20;7.15;;;;;;;;;;10279043;28;20128;-65
2022/06/06 00:21:18;;;;;;;9.93;5.75;;;;;;;;;;10291105;28;20319;-65
2022/06/06 00:26:20;;;;;;;13.85;6.47;;;;;;;;;;10278556;29;20062;-66
2022/06/06 00:36:45;;;;;;;10.57;6.05;;;;;;;;;;10291217;28;20050;-66
2022/06/06 00:41:50;;;;;;;8.05;5.15;;;;;;;;;;10278058;28;20380;-66
2022/06/06 00:46:56;;;;;;;8.77;5.47;;;;;;;;;;10291260;28;20067;-66
2022/06/06 00:52:00;;;;;;;11.65;6.57;;;;;;;;;;10290478;28;20043;-66
2022/06/06 00:57:06;;;;;;;8.43;5.13;;;;;;;;;;10277330;28;20051;-66
2022/06/06 01:02:10;;;;;;;8.07;5.05;;;;;;;;;;10290239;28;20051;-66
2022/06/06 01:07:14;;;;;;;8.93;5.60;;;;;;;;;;10289099;28;20043;-66
2022/06/06 01:12:19;;;;;;;6.97;5.15;;;;;;;;;;10276951;29;20058;-66
2022/06/06 01:17:30;;;;;;;9.90;5.75;;;;;;;;;;10290055;28;20043;-65
2022/06/06 01:23:04;;;;;;;12.48;6.75;;;;;;;;;;10289391;28;20071;-66
2022/06/06 01:28:22;;;;;;;8.05;5.15;;;;;;;;;;10276495;28;20063;-66
2022/06/06 01:33:24;;;;;;;10.93;6.15;;;;;;;;;;10288449;28;20055;-66
2022/06/06 01:38:26;;;;;;;10.25;4.88;;;;;;;;;;10288650;28;20050;-64
2022/06/06 01:43:36;;;;;;;12.55;5.32;;;;;;;;;;10288908;28;20306;-65
2022/06/06 01:48:41;;;;;;;9.18;5.80;;;;;;;;;;10275791;28;20071;-65
2022/06/06 01:53:43;;;;;;;9.13;5.60;;;;;;;;;;10288096;28;20051;-66
2022/06/06 01:58:47;;;;;;;10.07;5.63;;;;;;;;;;10288188;28;20050;-67
2022/06/06 02:03:49;;;;;;;9.45;5.85;;;;;;;;;;10264527;29;20081;-65
2022/06/06 02:08:51;;;;;;;9.45;5.82;;;;;;;;;;10286139;28;20078;-66
2022/06/06 02:13:55;;;;;;;10.77;6.13;;;;;;;;;;10287470;28;20043;-66
2022/06/06 02:18:58;;;;;;;12.63;5.77;;;;;;;;;;10286814;28;20098;-66
2022/06/06 02:24:00;;;;;;;9.25;5.65;;;;;;;;;;10274481;28;20541;-67
2022/06/06 02:29:05;;;;;;;12.50;6.18;;;;;;;;;;10273704;28;20063;-66
2022/06/06 02:34:08;;;;;;;9.95;5.15;;;;;;;;;;10286906;28;20110;-66
2022/06/06 02:39:11;;;;;;;11.68;6.30;;;;;;;;;;10274351;28;20153;-66
2022/06/06 02:44:14;;;;;;;13.05;7.30;;;;;;;;;;10286507;28;20070;-66
2022/06/06 02:49:16;;;;;;;8.98;6.00;;;;;;;;;;10285936;28;20073;-66
2022/06/06 02:54:19;;;;;;;9.23;5.72;;;;;;;;;;10271689;28;20055;-67
2022/06/06 02:59:24;;;;;;;9.98;6.35;;;;;;;;;;10272441;28;20345;-66
2022/06/06 03:04:26;;;;;;;11.32;6.07;;;;;;;;;;10285602;28;20078;-66
2022/06/06 03:09:39;;;;;;;8.50;5.95;;;;;;;;;;10284788;28;20050;-67
2022/06/06 03:14:58;;;;;;;9.10;6.13;;;;;;;;;;10272185;29;20051;-67
2022/06/06 03:25:39;;;;;;;10.45;5.65;;;;;;;;;;10267701;28;20094;-67
2022/06/06 03:30:56;;;;;;;11.07;5.50;;;;;;;;;;10274996;28;20064;-67
2022/06/06 03:36:08;;;;;;;8.55;5.32;;;;;;;;;;10293577;28;20043;-67
2022/06/06 03:41:19;;;;;;;10.05;5.63;;;;;;;;;;10290129;28;20047;-66
2022/06/06 03:46:34;;;;;;;8.88;5.00;;;;;;;;;;10250832;28;20350;-69
2022/06/06 03:51:44;;;;;;;7.80;5.45;;;;;;;;;;10292747;28;20051;-66
2022/06/06 03:57:02;;;;;;;9.10;5.47;;;;;;;;;;10291757;28;20386;-66
2022/06/06 04:02:09;;;;;;;10.23;5.93;;;;;;;;;;10290932;28;20043;-67
2022/06/06 04:07:11;;;;;;;8.05;5.70;;;;;;;;;;10278474;29;20055;-67
2022/06/06 04:12:26;;;;;;;9.23;5.78;;;;;;;;;;10291264;28;20339;-67
2022/06/06 04:17:41;;;;;;;8.25;5.07;;;;;;;;;;10291366;28;20043;-67
2022/06/06 04:22:59;;;;;;;9.68;5.20;;;;;;;;;;10290893;28;20054;-67
2022/06/06 04:28:07;;;;;;;12.10;5.72;;;;;;;;;;10248891;28;20072;-67
2022/06/06 04:33:18;;;;;;;11.02;5.40;;;;;;;;;;10290017;28;20054;-66
2022/06/06 04:38:28;;;;;;;8.20;5.50;;;;;;;;;;10290191;28;20066;-67
2022/06/06 04:43:36;;;;;;;9.82;5.82;;;;;;;;;;10289619;28;20047;-67
2022/06/06 04:48:41;;;;;;;7.25;4.93;;;;;;;;;;10290126;28;20067;-67
2022/06/06 04:53:46;;;;;;;8.68;5.65;;;;;;;;;;10290584;28;20055;-67
2022/06/06 04:58:56;;;;;;;7.63;5.00;;;;;;;;;;10289788;28;20062;-68
2022/06/06 05:04:00;;;;;;;8.68;5.10;;;;;;;;;;10289528;28;20047;-67
2022/06/06 05:09:24;;;;;;;5.93;4.68;;;;;;;;;;10289013;28;20050;-68
2022/06/06 05:14:39;;;;;;;7.85;5.25;;;;;;;;;;10283438;28;20059;-68
2022/06/06 05:20:12;;;;;;;7.82;5.07;;;;;;;;;;10280966;28;20062;-67
2022/06/06 05:25:40;;;;;;;8.27;4.88;;;;;;;;;;10264707;28;20051;-68
2022/06/06 05:30:53;;;;;;;6.72;5.05;;;;;;;;;;10267968;28;20358;-68
2022/06/06 05:36:18;;;;;;;7.13;4.72;;;;;;;;;;10272563;28;20052;-67
2022/06/06 05:41:29;;;;;;;5.55;4.75;;;;;;;;;;10285158;28;20035;-68
2022/06/06 05:46:42;;;;;;;7.82;5.43;;;;;;;;;;10284410;28;20303;-67
2022/06/06 05:52:01;;;;;;;11.68;5.90;;;;;;;;;;10285189;28;20070;-67
2022/06/06 05:57:18;;;;;;;11.13;6.57;;;;;;;;;;10272382;28;20083;-67
2022/06/06 06:02:35;;;;;;;15.02;6.22;;;;;;;;;;10285115;28;20110;-67
2022/06/06 06:07:51;;;;;;;12.95;5.95;;;;;;;;;;10282338;28;20067;-67
2022/06/06 06:13:21;;;;;;;6.00;4.65;;;;;;;;;;10273198;28;20073;-68
2022/06/06 06:18:31;;;;;;;6.68;4.25;;;;;;;;;;10266216;29;20153;-67
2022/06/06 06:23:40;;;;;;;10.52;4.43;;;;;;;;;;10263869;29;20058;-68
2022/06/06 06:28:46;;;;;;;7.05;4.40;;;;;;;;;;10279157;28;20346;-68
2022/06/06 06:34:04;;;;;;;8.75;4.22;;;;;;;;;;10283345;28;20258;-68
2022/06/06 06:39:45;;;;;;;7.60;4.13;;;;;;;;;;10277722;28;20279;-70
2022/06/06 06:44:52;;;;;;;5.53;3.20;;;;;;;;;;10252170;28;20070;-68
2022/06/06 06:50:00;;;;;;;1.38;0.90;;;;;;;;;;10270717;29;20051;-67
2022/06/06 06:55:15;;;;;;;0.28;0.20;;;;;;;;;;10269770;28;20062;-67
2022/06/06 07:00:20;;;;;;;0.10;0.10;;;;;;;;;;10257282;29;20063;-68
2022/06/06 07:11:36;;;;;;;0.10;0.10;;;;;;;;;;10144707;29;20088;-66
2022/06/06 07:16:40;;;;;;;0.10;0.10;;;;;;;;;;10147259;29;20072;-67
2022/06/06 07:21:45;;;;;;;0.30;0.30;;;;;;;;;;10152890;29;20213;-68
2022/06/06 07:26:49;;;;;;;0.30;0.30;;;;;;;;;;10156357;29;20112;-69
2022/06/06 07:32:15;;;;;;;0.30;0.30;;;;;;;;;;10146049;29;20079;-69
2022/06/06 07:37:31;;;;;;;0.70;0.70;;;;;;;;;;10153592;29;20257;-69
2022/06/06 07:42:50;;;;;;;1.70;1.70;;;;;;;;;;10241447;29;20125;-68
2022/06/06 07:48:11;;;;;;;4.80;4.70;;;;;;;;;;10261502;28;20051;-68
2022/06/06 07:53:20;;;;;;;4.82;4.72;;;;;;;;;;10274467;29;20377;-69
2022/06/06 07:58:32;;;;;;;3.25;3.15;;;;;;;;;;10275380;29;20051;-67
2022/06/06 08:03:45;;;;;;;3.42;3.33;;;;;;;;;;10265846;28;20055;-68
2022/06/06 08:09:05;;;;;;;2.40;2.40;;;;;;;;;;10256594;29;20086;-67
2022/06/06 08:14:19;;;;;;;3.90;3.80;;;;;;;;;;10263240;28;20055;-69
2022/06/06 08:19:40;;;;;;;3.83;3.72;;;;;;;;;;10273222;28;20070;-68
2022/06/06 08:24:47;;;;;;;4.50;4.40;;;;;;;;;;10282963;28;20070;-68
2022/06/06 08:29:51;;;;;;;4.20;4.10;;;;;;;;;;10278378;28;20258;-68
2022/06/06 08:34:54;;;;;;;3.78;3.67;;;;;;;;;;10283893;28;20361;-69
2022/06/06 08:40:08;;;;;;;4.30;4.20;;;;;;;;;;10274285;28;20062;-67
2022/06/06 08:45:22;;;;;;;2.50;2.50;;;;;;;;;;10278814;28;20365;-68
2022/06/06 08:50:47;;;;;;;1.90;1.90;;;;;;;;;;10261182;28;20055;-68
2022/06/06 08:56:17;;;;;;;0.20;0.20;;;;;;;;;;10260206;29;20051;-68
2022/06/06 09:01:33;;;;;;;0.00;0.00;;;;;;;;;;10246844;28;20055;-69
2022/06/06 09:07:22;;;;;;;0.10;0.10;;;;;;;;;;10285797;28;20055;-68
2022/06/06 09:13:12;;;;;;;0.10;0.10;;;;;;;;;;10183035;29;20067;-69
2022/06/06 09:18:44;;;;;;;0.93;0.85;;;;;;;;;;10101565;29;20303;-67
2022/06/06 09:24:28;;;;;;;0.65;0.10;;;;;;;;;;10105325;29;20092;-69
2022/06/06 09:30:01;;;;;;;0.90;0.38;;;;;;;;;;10035630;29;20161;-67
2022/06/06 09:35:38;;;;;;;0.90;0.90;;;;;;;;;;10107037;29;20349;-68
2022/06/06 09:41:05;;;;;;;0.57;0.57;;;;;;;;;;10105335;29;20073;-68
2022/06/06 09:46:34;;;;;;;4.43;3.03;;;;;;;;;;10139698;29;20056;-68
2022/06/06 09:52:16;;;;;;;9.38;3.78;;;;;;;;;;10240115;29;20063;-68
2022/06/06 10:03:35;;;;;;;4.72;3.30;;;;;;;;;;10265550;29;20327;-68
2022/06/06 10:09:13;;;;;;;6.10;4.10;;;;;;;;;;10281020;28;20038;-68
2022/06/06 10:14:34;;;;;;;12.18;3.85;;;;;;;;;;10263517;29;20051;-68
2022/06/06 10:19:50;;;;;;;4.53;3.13;;;;;;;;;;10263349;28;20075;-68
2022/06/06 10:25:22;;;;;;;18.35;4.70;;;;;;;;;;10284282;28;20062;-68
2022/06/06 10:30:32;;;;;;;9.75;3.83;;;;;;;;;;10257782;29;20090;-68
2022/06/06 10:35:47;;;;;;;5.93;3.45;;;;;;;;;;10284116;28;20051;-67
2022/06/06 10:41:06;;;;;;;8.38;3.67;;;;;;;;;;10271646;28;20039;-67
2022/06/06 10:46:17;;;;;;;6.13;3.67;;;;;;;;;;10270105;29;20051;-67
2022/06/06 10:51:59;;;;;;;6.88;3.30;;;;;;;;;;10283060;28;20035;-66
2022/06/06 10:57:27;;;;;;;13.77;5.07;;;;;;;;;;10274593;28;20326;-66
2022/06/06 11:02:53;;;;;;;8.27;3.75;;;;;;;;;;10269641;28;20119;-68
2022/06/06 11:08:14;;;;;;;10.82;4.18;;;;;;;;;;10282928;28;20039;-68
2022/06/06 11:13:30;;;;;;;10.48;3.72;;;;;;;;;;10274947;28;20047;-67
2022/06/06 11:19:06;;;;;;;9.85;4.45;;;;;;;;;;10276740;28;20047;-68
2022/06/06 11:24:18;;;;;;;9.48;4.28;;;;;;;;;;10281209;28;20323;-68
2022/06/06 11:29:49;;;;;;;4.97;3.45;;;;;;;;;;10259679;28;20242;-67
2022/06/06 11:35:29;;;;;;;5.93;3.63;;;;;;;;;;10273644;28;20105;-67
2022/06/06 11:41:22;;;;;;;7.35;3.85;;;;;;;;;;10261207;28;20071;-69
2022/06/06 11:47:11;;;;;;;8.27;3.58;;;;;;;;;;10269488;28;20380;-68
2022/06/06 11:52:51;;;;;;;6.50;3.55;;;;;;;;;;10272665;28;20047;-68
2022/06/06 11:58:22;;;;;;;4.00;3.50;;;;;;;;;;10275124;28;20135;-68
2022/06/06 12:03:51;;;;;;;7.15;4.18;;;;;;;;;;10276841;28;20326;-68
2022/06/06 12:09:02;;;;;;;9.23;4.35;;;;;;;;;;10282074;28;20066;-67
2022/06/06 12:14:39;;;;;;;8.38;4.32;;;;;;;;;;10289957;28;20039;-68
2022/06/06 12:19:55;;;;;;;8.13;4.10;;;;;;;;;;10281761;28;20047;-68
2022/06/06 12:25:24;;;;;;;6.70;4.25;;;;;;;;;;10284081;28;20047;-68
2022/06/06 12:30:54;;;;;;;6.13;4.30;;;;;;;;;;10278497;28;20059;-69
2022/06/06 12:36:00;;;;;;;10.10;4.43;;;;;;;;;;10282426;28;20350;-67
2022/06/06 12:41:16;;;;;;;6.78;4.35;;;;;;;;;;10260155;29;20066;-68
2022/06/06 12:46:39;;;;;;;18.50;4.97;;;;;;;;;;10281588;28;20047;-68
2022/06/06 12:51:52;;;;;;;6.82;5.00;;;;;;;;;;10288381;28;20242;-67
2022/06/06 12:56:56;;;;;;;12.25;5.30;;;;;;;;;;10260788;29;20063;-68
2022/06/06 13:02:04;;;;;;;7.82;5.88;;;;;;;;;;10272219;28;20125;-68
2022/06/06 13:07:27;;;;;;;7.38;5.18;;;;;;;;;;10286576;28;20302;-68
2022/06/06 13:12:47;;;;;;;13.23;5.57;;;;;;;;;;10276441;29;20070;-68
2022/06/06 13:18:03;;;;;;;17.45;8.23;;;;;;;;;;10287382;28;20055;-68
2022/06/06 13:23:38;;;;;;;21.17;8.68;;;;;;;;;;10286130;28;20354;-68
2022/06/06 13:28:46;;;;;;;15.00;8.98;;;;;;;;;;10274615;28;20263;-66
2022/06/06 13:34:03;;;;;;;23.88;9.70;;;;;;;;;;10284560;28;20046;-67
2022/06/06 13:39:15;;;;;;;23.95;11.20;;;;;;;;;;10286995;28;20101;-72
2022/06/06 13:44:39;;;;;;;18.33;11.27;;;;;;;;;;10273024;28;20101;-72
2022/06/06 13:50:01;;;;;;;17.65;11.43;;;;;;;;;;10266180;28;20106;-70
2022/06/06 13:55:32;;;;;;;19.87;12.03;;;;;;;;;;10286575;28;20279;-75
2022/06/06 14:00:41;;;;;;;20.67;12.57;;;;;;;;;;10240274;28;20109;-70
2022/06/06 14:06:07;;;;;;;27.23;15.20;;;;;;;;;;10282618;28;20066;-69
2022/06/06 14:11:11;;;;;;;25.85;13.82;;;;;;;;;;10270674;28;20047;-69
2022/06/06 14:16:22;;;;;;;27.13;14.38;;;;;;;;;;10276457;28;20060;-68
2022/06/06 14:21:30;;;;;;;24.73;14.75;;;;;;;;;;10282390;28;20047;-68
2022/06/06 14:26:40;;;;;;;24.38;14.48;;;;;;;;;;10270880;28;20059;-68
2022/06/06 14:31:44;;;;;;;25.50;14.70;;;;;;;;;;10238418;29;20362;-67
2022/06/06 14:37:06;;;;;;;24.38;15.90;;;;;;;;;;10283008;28;20388;-66
2022/06/06 14:42:11;;;;;;;31.92;15.38;;;;;;;;;;10262280;29;20062;-67
2022/06/06 14:47:17;;;;;;;20.92;14.63;;;;;;;;;;10263253;28;20254;-67
2022/06/06 14:52:23;;;;;;;25.25;15.60;;;;;;;;;;10268863;29;20078;-67
2022/06/06 14:57:27;;;;;;;27.08;16.58;;;;;;;;;;10276511;28;20051;-67
2022/06/06 15:02:31;;;;;;;27.27;16.20;;;;;;;;;;10275402;28;20270;-68
2022/06/06 15:07:43;;;;;;;26.98;17.10;;;;;;;;;;10278421;28;20338;-67
2022/06/06 15:12:45;;;;;;;26.35;16.02;;;;;;;;;;10274264;28;20070;-67
2022/06/06 15:17:51;;;;;;;28.70;17.95;;;;;;;;;;10266391;28;20059;-67
2022/06/06 15:22:57;;;;;;;30.13;18.80;;;;;;;;;;10269062;28;20283;-68
2022/06/06 15:28:07;;;;;;;27.05;16.92;;;;;;;;;;10270861;28;20162;-66
2022/06/06 15:33:18;;;;;;;24.83;16.30;;;;;;;;;;10280341;28;20051;-69
2022/06/06 15:38:33;;;;;;;27.15;17.33;;;;;;;;;;10272980;28;20051;-66
2022/06/06 15:43:46;;;;;;;30.98;19.92;;;;;;;;;;10281490;28;20334;-69
2022/06/06 15:49:01;;;;;;;36.33;18.80;;;;;;;;;;10284535;28;20054;-69
2022/06/06 15:54:34;;;;;;;25.48;15.18;;;;;;;;;;10249946;28;20132;-71
2022/06/06 16:00:12;;;;;;;24.58;15.40;;;;;;;;;;10246083;28;20063;-67
2022/06/06 16:05:21;;;;;;;27.30;15.43;;;;;;;;;;10223329;29;20059;-68
2022/06/06 16:10:32;;;;;;;28.70;15.45;;;;;;;;;;10261509;29;20050;-68
2022/06/06 16:15:37;;;;;;;28.13;15.88;;;;;;;;;;10255847;28;20071;-67
2022/06/06 16:20:44;;;;;;;26.15;16.45;;;;;;;;;;10259852;28;20047;-72
2022/06/06 16:25:52;;;;;;;29.30;18.35;;;;;;;;;;10283409;28;20047;-67
2022/06/06 16:30:58;;;;;;;35.10;21.80;;;;;;;;;;10273114;29;20051;-68
2022/06/06 16:36:04;;;;;;;45.15;24.92;;;;;;;;;;10280212;28;20066;-69
2022/06/06 16:52:31;;;;;;;41.08;21.33;;;;;;;;;;10274340;29;20326;-68
2022/06/06 16:57:46;;;;;;;28.45;18.45;;;;;;;;;;10283671;28;20067;-69
2022/06/06 17:02:54;;;;;;;27.52;17.40;;;;;;;;;;10290077;28;20043;-69
2022/06/06 17:08:08;;;;;;;29.30;16.98;;;;;;;;;;10285931;28;20055;-69
2022/06/06 17:13:23;;;;;;;21.60;14.20;;;;;;;;;;10288001;28;20048;-69
2022/06/06 17:18:32;;;;;;;22.83;15.32;;;;;;;;;;10271960;29;20062;-68
2022/06/06 17:23:35;;;;;;;27.63;16.38;;;;;;;;;;10283572;28;20082;-68
2022/06/06 17:28:55;;;;;;;22.42;14.07;;;;;;;;;;10282400;28;20361;-68
2022/06/06 17:34:04;;;;;;;18.45;12.70;;;;;;;;;;10287461;28;20050;-69
2022/06/06 17:39:25;;;;;;;21.83;13.82;;;;;;;;;;10287621;28;20039;-69
2022/06/06 17:44:32;;;;;;;20.38;14.10;;;;;;;;;;10267201;28;20035;-68
2022/06/06 17:49:52;;;;;;;22.50;14.20;;;;;;;;;;10285193;28;20070;-69
2022/06/06 17:55:01;;;;;;;27.33;14.65;;;;;;;;;;10280907;28;20117;-69
2022/06/06 18:00:13;;;;;;;24.73;15.05;;;;;;;;;;10282754;28;20050;-69
2022/06/06 18:05:42;;;;;;;27.05;16.55;;;;;;;;;;10283050;28;20126;-68
2022/06/06 18:10:52;;;;;;;27.73;16.95;;;;;;;;;;10285513;28;20227;-71
2022/06/06 18:16:02;;;;;;;31.55;18.45;;;;;;;;;;10280693;28;20345;-68
2022/06/06 18:21:08;;;;;;;34.17;19.52;;;;;;;;;;10269758;28;20046;-69
2022/06/06 18:26:22;;;;;;;29.30;18.77;;;;;;;;;;10269552;28;20079;-68
2022/06/06 18:31:30;;;;;;;35.90;19.77;;;;;;;;;;10271326;28;20066;-68
2022/06/06 18:36:40;;;;;;;38.65;20.05;;;;;;;;;;10277011;28;20062;-69
2022/06/06 18:41:55;;;;;;;39.58;23.05;;;;;;;;;;10280647;28;20044;-69
2022/06/06 18:46:59;;;;;;;35.20;21.60;;;;;;;;;;10272208;28;20055;-68
2022/06/06 18:52:04;;;;;;;40.55;23.58;;;;;;;;;;10283002;28;20113;-67
2022/06/06 18:57:14;;;;;;;43.10;25.73;;;;;;;;;;10284054;28;20051;-68
2022/06/06 19:02:23;;;;;;;40.13;24.92;;;;;;;;;;10271539;28;20051;-68
2022/06/06 19:07:30;;;;;;;47.33;26.90;;;;;;;;;;10266743;29;20060;-68
2022/06/06 19:12:34;;;;;;;48.22;27.52;;;;;;;;;;10275572;28;20047;-67
2022/06/06 19:17:44;;;;;;;45.97;27.10;;;;;;;;;;10265439;28;20119;-68
2022/06/06 19:22:55;;;;;;;49.35;27.67;;;;;;;;;;10280927;28;20043;-68
2022/06/06 19:28:01;;;;;;;48.33;28.17;;;;;;;;;;10274456;28;20047;-68
2022/06/06 19:33:22;;;;;;;51.40;30.90;;;;;;;;;;10282539;28;20246;-68
2022/06/06 19:38:25;;;;;;;52.97;30.35;;;;;;;;;;10268559;29;20047;-68
2022/06/06 19:43:31;;;;;;;50.25;28.60;;;;;;;;;;10278773;29;20056;-68
2022/06/06 19:48:43;;;;;;;50.00;30.17;;;;;;;;;;10265532;28;20242;-68
2022/06/06 19:53:49;;;;;;;59.28;33.67;;;;;;;;;;10272175;28;20046;-68
2022/06/06 19:58:52;;;;;;;60.47;35.67;;;;;;;;;;10277623;28;20319;-68
2022/06/06 20:04:00;;;;;;;66.20;37.97;;;;;;;;;;10267454;28;20271;-68
2022/06/06 20:09:05;;;;;;;68.97;39.50;;;;;;;;;;10281333;28;20314;-68
2022/06/06 20:14:21;;;;;;;79.60;44.20;;;;;;;;;;10285705;28;20039;-68
2022/06/06 20:19:33;;;;;;;77.35;44.35;;;;;;;;;;10287897;28;20059;-69
2022/06/06 20:24:42;;;;;;;85.88;48.15;;;;;;;;;;10280466;28;20331;-68
2022/06/06 20:29:47;;;;;;;82.38;46.75;;;;;;;;;;10274488;29;20063;-68
2022/06/06 20:34:52;;;;;;;82.00;46.22;;;;;;;;;;10277807;28;20112;-67
2022/06/06 20:40:17;;;;;;;85.45;48.53;;;;;;;;;;10277944;28;20140;-67
2022/06/06 20:45:39;;;;;;;92.88;51.47;;;;;;;;;;10280986;28;20354;-67
2022/06/06 20:50:46;;;;;;;98.20;54.25;;;;;;;;;;10282065;28;20047;-67
2022/06/06 20:56:04;;;;;;;95.32;53.05;;;;;;;;;;10286832;28;20050;-67
2022/06/06 21:01:06;;;;;;;97.47;53.15;;;;;;;;;;10281476;28;20287;-68
2022/06/06 21:06:12;;;;;;;96.20;54.00;;;;;;;;;;10270377;28;20039;-68
2022/06/06 21:11:16;;;;;;;103.00;55.38;;;;;;;;;;10286402;28;20066;-67
2022/06/06 21:16:19;;;;;;;104.40;56.63;;;;;;;;;;10282784;28;20078;-68
2022/06/06 21:21:24;;;;;;;110.90;56.72;;;;;;;;;;10250876;29;20047;-68
2022/06/06 21:26:26;;;;;;;105.80;59.10;;;;;;;;;;10264274;28;20059;-67
2022/06/06 21:31:29;;;;;;;113.97;62.00;;;;;;;;;;10273437;28;20114;-67
2022/06/06 21:36:33;;;;;;;119.47;65.30;;;;;;;;;;10289513;28;20066;-69
2022/06/06 21:41:35;;;;;;;132.48;69.78;;;;;;;;;;10288272;28;20067;-67
2022/06/06 21:46:37;;;;;;;129.52;70.85;;;;;;;;;;10289274;28;20047;-68
2022/06/06 21:51:42;;;;;;;142.95;74.38;;;;;;;;;;10289152;28;20047;-68
2022/06/06 21:56:46;;;;;;;145.82;78.00;;;;;;;;;;10288845;28;20043;-67
2022/06/06 22:01:51;;;;;;;150.30;79.40;;;;;;;;;;10274638;28;20082;-67
2022/06/06 22:06:55;;;;;;;175.30;90.85;;;;;;;;;;10287889;28;20055;-68
2022/06/06 22:11:58;;;;;;;162.27;87.60;;;;;;;;;;10287947;28;20054;-68
2022/06/06 22:17:02;;;;;;;161.90;87.68;;;;;;;;;;10287593;28;20066;-67
2022/06/06 22:22:06;;;;;;;152.15;83.50;;;;;;;;;;10289017;28;20047;-67
2022/06/06 22:27:08;;;;;;;175.18;92.85;;;;;;;;;;10274597;29;20171;-69
2022/06/06 22:32:11;;;;;;;169.45;91.43;;;;;;;;;;10274361;28;20363;-67
2022/06/06 22:37:14;;;;;;;172.50;91.15;;;;;;;;;;10274485;28;20085;-68
2022/06/06 22:42:17;;;;;;;201.37;102.67;;;;;;;;;;10288520;28;20062;-67
2022/06/06 22:47:19;;;;;;;199.90;101.30;;;;;;;;;;10289239;28;20047;-67
2022/06/06 22:52:23;;;;;;;414.10;188.57;;;;;;;;;;10286936;28;20051;-68
2022/06/06 22:57:25;;;;;;;312.40;147.17;;;;;;;;;;10273145;28;20059;-68
2022/06/06 23:02:27;;;;;;;444.77;176.18;;;;;;;;;;10273407;28;20081;-68
2022/06/06 23:07:30;;;;;;;316.90;132.43;;;;;;;;;;10286560;28;20047;-68
2022/06/06 23:12:32;;;;;;;241.95;113.75;;;;;;;;;;10286123;28;20082;-67
2022/06/06 23:17:35;;;;;;;193.00;94.25;;;;;;;;;;10285572;28;20393;-68
2022/06/06 23:22:39;;;;;;;146.48;80.30;;;;;;;;;;10246345;29;20355;-68
2022/06/06 23:27:41;;;;;;;138.70;75.30;;;;;;;;;;10273486;28;20055;-68
2022/06/06 23:32:44;;;;;;;145.32;79.50;;;;;;;;;;10271154;28;20059;-68
2022/06/06 23:37:52;;;;;;;132.13;75.03;;;;;;;;;;10285063;28;20058;-68
2022/06/06 23:42:59;;;;;;;138.65;74.93;;;;;;;;;;10285019;28;20047;-69
2022/06/06 23:48:05;;;;;;;130.63;68.75;;;;;;;;;;10288260;28;20338;-67
2022/06/06 23:53:11;;;;;;;126.35;68.60;;;;;;;;;;10293685;28;20330;-68
2022/06/06 23:58:14;;;;;;;103.72;57.58;;;;;;;;;;10292487;28;20058;-70
